sensor_id;sensor_type;location;lat;lon;timestamp;P1;durP1;ratioP1;P2;durP2;ratioP2
5904;SDS011;2978;42.012;24.880;2022-12-15T00:01:00;32.27;;;22.10;;
5904;SDS011;2978;42.012;24.880;2022-12-15T00:03:44;40.93;;;22.30;;
5904;SDS011;2978;42.012;24.880;2022-12-15T00:06:28;31.07;;;22.57;;
5904;SDS011;2978;42.012;24.880;2022-12-15T00:09:12;28.57;;;21.90;;
5904;SDS011;2978;42.012;24.880;2022-12-15T00:11:56;31.90;;;22.93;;
5904;SDS011;2978;42.012;24.880;2022-12-15T00:14:40;30.37;;;22.37;;
5904;SDS011;2978;42.012;24.880;2022-12-15T00:17:24;32.33;;;23.13;;
5904;SDS011;2978;42.012;24.880;2022-12-15T00:20:08;28.47;;;22.13;;
5904;SDS011;2978;42.012;24.880;2022-12-15T00:22:52;30.40;;;22.60;;
5904;SDS011;2978;42.012;24.880;2022-12-15T00:25:36;31.07;;;23.17;;
5904;SDS011;2978;42.012;24.880;2022-12-15T00:28:21;29.80;;;22.23;;
5904;SDS011;2978;42.012;24.880;2022-12-15T00:31:04;34.10;;;23.70;;
5904;SDS011;2978;42.012;24.880;2022-12-15T00:33:48;33.00;;;23.13;;
5904;SDS011;2978;42.012;24.880;2022-12-15T00:36:32;30.07;;;22.00;;
5904;SDS011;2978;42.012;24.880;2022-12-15T00:39:17;30.40;;;22.20;;
5904;SDS011;2978;42.012;24.880;2022-12-15T00:41:42;29.33;;;22.80;;
5904;SDS011;2978;42.012;24.880;2022-12-15T00:44:07;26.87;;;20.50;;
5904;SDS011;2978;42.012;24.880;2022-12-15T00:46:33;31.40;;;22.57;;
5904;SDS011;2978;42.012;24.880;2022-12-15T00:49:17;34.83;;;24.40;;
5904;SDS011;2978;42.012;24.880;2022-12-15T00:52:01;33.00;;;26.77;;
5904;SDS011;2978;42.012;24.880;2022-12-15T00:54:45;31.53;;;24.10;;
5904;SDS011;2978;42.012;24.880;2022-12-15T00:57:29;29.90;;;22.30;;
5904;SDS011;2978;42.012;24.880;2022-12-15T01:00:13;33.40;;;25.27;;
5904;SDS011;2978;42.012;24.880;2022-12-15T01:02:57;35.33;;;24.17;;
5904;SDS011;2978;42.012;24.880;2022-12-15T01:05:41;30.70;;;23.23;;
5904;SDS011;2978;42.012;24.880;2022-12-15T01:08:26;28.07;;;21.63;;
5904;SDS011;2978;42.012;24.880;2022-12-15T01:11:10;28.97;;;21.57;;
5904;SDS011;2978;42.012;24.880;2022-12-15T01:13:54;29.17;;;21.57;;
5904;SDS011;2978;42.012;24.880;2022-12-15T01:16:38;30.63;;;22.53;;
5904;SDS011;2978;42.012;24.880;2022-12-15T01:19:22;27.57;;;20.83;;
5904;SDS011;2978;42.012;24.880;2022-12-15T01:22:06;32.00;;;22.43;;
5904;SDS011;2978;42.012;24.880;2022-12-15T01:24:31;34.03;;;23.23;;
5904;SDS011;2978;42.012;24.880;2022-12-15T01:26:57;35.23;;;22.30;;
5904;SDS011;2978;42.012;24.880;2022-12-15T01:29:23;29.07;;;23.90;;
5904;SDS011;2978;42.012;24.880;2022-12-15T01:31:49;35.87;;;24.90;;
5904;SDS011;2978;42.012;24.880;2022-12-15T01:34:14;30.83;;;24.40;;
5904;SDS011;2978;42.012;24.880;2022-12-15T01:36:41;49.03;;;24.80;;
5904;SDS011;2978;42.012;24.880;2022-12-15T01:39:07;35.80;;;25.40;;
5904;SDS011;2978;42.012;24.880;2022-12-15T01:41:32;35.33;;;22.90;;
5904;SDS011;2978;42.012;24.880;2022-12-15T01:44:17;32.57;;;24.13;;
5904;SDS011;2978;42.012;24.880;2022-12-15T01:46:45;27.90;;;22.70;;
5904;SDS011;2978;42.012;24.880;2022-12-15T01:49:14;28.37;;;22.23;;
5904;SDS011;2978;42.012;24.880;2022-12-15T01:51:48;35.87;;;25.27;;
5904;SDS011;2978;42.012;24.880;2022-12-15T01:54:20;30.67;;;22.80;;
5904;SDS011;2978;42.012;24.880;2022-12-15T01:56:54;30.30;;;22.83;;
5904;SDS011;2978;42.012;24.880;2022-12-15T01:59:25;32.77;;;23.83;;
5904;SDS011;2978;42.012;24.880;2022-12-15T02:01:54;29.60;;;21.00;;
5904;SDS011;2978;42.012;24.880;2022-12-15T02:04:21;27.23;;;21.33;;
5904;SDS011;2978;42.012;24.880;2022-12-15T02:06:47;33.03;;;24.43;;
5904;SDS011;2978;42.012;24.880;2022-12-15T02:09:13;30.23;;;21.70;;
5904;SDS011;2978;42.012;24.880;2022-12-15T02:11:50;31.13;;;21.80;;
5904;SDS011;2978;42.012;24.880;2022-12-15T02:17:40;29.80;;;21.53;;
5904;SDS011;2978;42.012;24.880;2022-12-15T02:34:18;29.40;;;22.13;;
5904;SDS011;2978;42.012;24.880;2022-12-15T02:36:48;30.87;;;22.47;;
5904;SDS011;2978;42.012;24.880;2022-12-15T02:39:18;29.43;;;22.00;;
5904;SDS011;2978;42.012;24.880;2022-12-15T02:41:44;32.17;;;22.10;;
5904;SDS011;2978;42.012;24.880;2022-12-15T02:44:21;31.53;;;22.20;;
5904;SDS011;2978;42.012;24.880;2022-12-15T02:47:18;33.00;;;24.10;;
5904;SDS011;2978;42.012;24.880;2022-12-15T02:52:45;30.50;;;22.33;;
5904;SDS011;2978;42.012;24.880;2022-12-15T02:55:37;34.23;;;22.17;;
5904;SDS011;2978;42.012;24.880;2022-12-15T03:00:51;29.10;;;22.10;;
5904;SDS011;2978;42.012;24.880;2022-12-15T03:03:23;32.93;;;22.23;;
5904;SDS011;2978;42.012;24.880;2022-12-15T03:05:51;32.30;;;23.23;;
5904;SDS011;2978;42.012;24.880;2022-12-15T03:08:21;28.90;;;20.33;;
5904;SDS011;2978;42.012;24.880;2022-12-15T03:10:48;28.27;;;20.63;;
5904;SDS011;2978;42.012;24.880;2022-12-15T03:13:15;28.13;;;20.47;;
5904;SDS011;2978;42.012;24.880;2022-12-15T03:15:40;29.13;;;19.50;;
5904;SDS011;2978;42.012;24.880;2022-12-15T03:18:06;28.00;;;19.20;;
5904;SDS011;2978;42.012;24.880;2022-12-15T03:20:32;25.50;;;18.97;;
5904;SDS011;2978;42.012;24.880;2022-12-15T03:22:57;25.40;;;19.50;;
5904;SDS011;2978;42.012;24.880;2022-12-15T03:25:22;23.63;;;18.50;;
5904;SDS011;2978;42.012;24.880;2022-12-15T03:27:48;27.03;;;19.30;;
5904;SDS011;2978;42.012;24.880;2022-12-15T03:30:13;24.57;;;19.13;;
5904;SDS011;2978;42.012;24.880;2022-12-15T03:32:39;24.30;;;18.80;;
5904;SDS011;2978;42.012;24.880;2022-12-15T03:35:05;23.17;;;17.37;;
5904;SDS011;2978;42.012;24.880;2022-12-15T03:37:31;23.03;;;18.63;;
5904;SDS011;2978;42.012;24.880;2022-12-15T03:39:56;26.13;;;18.70;;
5904;SDS011;2978;42.012;24.880;2022-12-15T03:42:21;22.23;;;17.53;;
5904;SDS011;2978;42.012;24.880;2022-12-15T03:45:05;31.87;;;17.80;;
5904;SDS011;2978;42.012;24.880;2022-12-15T03:47:31;24.60;;;17.70;;
5904;SDS011;2978;42.012;24.880;2022-12-15T03:49:57;24.33;;;16.97;;
5904;SDS011;2978;42.012;24.880;2022-12-15T03:52:22;17.57;;;15.13;;
5904;SDS011;2978;42.012;24.880;2022-12-15T03:54:48;16.43;;;13.70;;
5904;SDS011;2978;42.012;24.880;2022-12-15T03:57:13;20.83;;;14.90;;
5904;SDS011;2978;42.012;24.880;2022-12-15T03:59:38;19.97;;;15.53;;
5904;SDS011;2978;42.012;24.880;2022-12-15T04:02:04;18.63;;;15.57;;
5904;SDS011;2978;42.012;24.880;2022-12-15T04:04:29;26.30;;;20.60;;
5904;SDS011;2978;42.012;24.880;2022-12-15T04:06:55;25.27;;;20.97;;
5904;SDS011;2978;42.012;24.880;2022-12-15T04:09:21;28.57;;;21.60;;
5904;SDS011;2978;42.012;24.880;2022-12-15T04:11:47;28.00;;;21.80;;
5904;SDS011;2978;42.012;24.880;2022-12-15T04:14:13;28.93;;;22.33;;
5904;SDS011;2978;42.012;24.880;2022-12-15T04:16:38;25.20;;;20.17;;
5904;SDS011;2978;42.012;24.880;2022-12-15T04:19:04;25.03;;;20.10;;
5904;SDS011;2978;42.012;24.880;2022-12-15T04:21:47;28.30;;;19.73;;
5904;SDS011;2978;42.012;24.880;2022-12-15T04:24:13;29.83;;;22.10;;
5904;SDS011;2978;42.012;24.880;2022-12-15T04:26:57;33.03;;;23.17;;
5904;SDS011;2978;42.012;24.880;2022-12-15T04:29:41;30.10;;;23.73;;
5904;SDS011;2978;42.012;24.880;2022-12-15T04:32:24;29.37;;;22.77;;
5904;SDS011;2978;42.012;24.880;2022-12-15T04:35:09;35.57;;;21.87;;
5904;SDS011;2978;42.012;24.880;2022-12-15T04:37:54;29.50;;;20.13;;
5904;SDS011;2978;42.012;24.880;2022-12-15T04:40:38;28.30;;;21.57;;
5904;SDS011;2978;42.012;24.880;2022-12-15T04:43:22;25.13;;;20.10;;
5904;SDS011;2978;42.012;24.880;2022-12-15T04:46:07;21.00;;;17.57;;
5904;SDS011;2978;42.012;24.880;2022-12-15T04:48:50;18.57;;;15.90;;
5904;SDS011;2978;42.012;24.880;2022-12-15T04:51:34;19.13;;;15.30;;
5904;SDS011;2978;42.012;24.880;2022-12-15T04:54:18;18.03;;;13.90;;
5904;SDS011;2978;42.012;24.880;2022-12-15T04:57:02;17.43;;;14.77;;
5904;SDS011;2978;42.012;24.880;2022-12-15T04:59:46;16.23;;;13.20;;
5904;SDS011;2978;42.012;24.880;2022-12-15T05:02:30;24.00;;;17.17;;
5904;SDS011;2978;42.012;24.880;2022-12-15T05:05:14;23.60;;;18.30;;
5904;SDS011;2978;42.012;24.880;2022-12-15T05:07:58;32.03;;;21.57;;
5904;SDS011;2978;42.012;24.880;2022-12-15T05:10:42;29.27;;;21.50;;
5904;SDS011;2978;42.012;24.880;2022-12-15T05:13:26;28.73;;;21.70;;
5904;SDS011;2978;42.012;24.880;2022-12-15T05:16:10;30.20;;;23.10;;
5904;SDS011;2978;42.012;24.880;2022-12-15T05:18:54;50.43;;;25.90;;
5904;SDS011;2978;42.012;24.880;2022-12-15T05:21:38;32.73;;;24.27;;
5904;SDS011;2978;42.012;24.880;2022-12-15T05:24:21;39.57;;;25.30;;
5904;SDS011;2978;42.012;24.880;2022-12-15T05:27:05;29.97;;;22.87;;
5904;SDS011;2978;42.012;24.880;2022-12-15T05:29:49;33.37;;;24.83;;
5904;SDS011;2978;42.012;24.880;2022-12-15T05:32:33;33.30;;;24.80;;
5904;SDS011;2978;42.012;24.880;2022-12-15T05:34:59;43.13;;;27.07;;
5904;SDS011;2978;42.012;24.880;2022-12-15T05:37:25;30.63;;;22.87;;
5904;SDS011;2978;42.012;24.880;2022-12-15T05:39:50;37.83;;;24.53;;
5904;SDS011;2978;42.012;24.880;2022-12-15T05:42:16;30.30;;;23.90;;
5904;SDS011;2978;42.012;24.880;2022-12-15T05:44:41;39.03;;;23.80;;
5904;SDS011;2978;42.012;24.880;2022-12-15T05:47:07;30.80;;;22.90;;
5904;SDS011;2978;42.012;24.880;2022-12-15T05:49:33;30.87;;;21.90;;
5904;SDS011;2978;42.012;24.880;2022-12-15T05:51:59;32.47;;;24.20;;
5904;SDS011;2978;42.012;24.880;2022-12-15T05:54:25;34.57;;;26.77;;
5904;SDS011;2978;42.012;24.880;2022-12-15T05:56:50;33.90;;;25.97;;
5904;SDS011;2978;42.012;24.880;2022-12-15T05:59:16;37.43;;;24.73;;
5904;SDS011;2978;42.012;24.880;2022-12-15T06:01:43;35.90;;;22.20;;
5904;SDS011;2978;42.012;24.880;2022-12-15T06:04:09;29.07;;;21.33;;
5904;SDS011;2978;42.012;24.880;2022-12-15T06:06:36;30.10;;;21.90;;
5904;SDS011;2978;42.012;24.880;2022-12-15T06:09:02;32.03;;;19.60;;
5904;SDS011;2978;42.012;24.880;2022-12-15T06:11:28;27.87;;;19.60;;
5904;SDS011;2978;42.012;24.880;2022-12-15T06:13:53;24.97;;;18.87;;
5904;SDS011;2978;42.012;24.880;2022-12-15T06:16:20;30.23;;;18.77;;
5904;SDS011;2978;42.012;24.880;2022-12-15T06:18:48;25.33;;;18.57;;
5904;SDS011;2978;42.012;24.880;2022-12-15T06:21:15;25.27;;;18.93;;
5904;SDS011;2978;42.012;24.880;2022-12-15T06:23:43;24.80;;;19.40;;
5904;SDS011;2978;42.012;24.880;2022-12-15T06:26:10;86.97;;;55.07;;
5904;SDS011;2978;42.012;24.880;2022-12-15T06:28:36;34.20;;;22.77;;
5904;SDS011;2978;42.012;24.880;2022-12-15T06:31:02;30.17;;;22.30;;
5904;SDS011;2978;42.012;24.880;2022-12-15T06:33:28;33.30;;;24.20;;
5904;SDS011;2978;42.012;24.880;2022-12-15T06:35:54;35.67;;;24.43;;
5904;SDS011;2978;42.012;24.880;2022-12-15T06:38:21;37.90;;;24.70;;
5904;SDS011;2978;42.012;24.880;2022-12-15T06:40:55;32.80;;;23.40;;
5904;SDS011;2978;42.012;24.880;2022-12-15T06:43:25;32.30;;;23.40;;
5904;SDS011;2978;42.012;24.880;2022-12-15T06:45:51;30.77;;;23.10;;
5904;SDS011;2978;42.012;24.880;2022-12-15T06:48:17;33.07;;;23.90;;
5904;SDS011;2978;42.012;24.880;2022-12-15T06:50:43;39.60;;;27.47;;
5904;SDS011;2978;42.012;24.880;2022-12-15T06:53:09;47.23;;;29.57;;
5904;SDS011;2978;42.012;24.880;2022-12-15T06:55:38;49.00;;;29.87;;
5904;SDS011;2978;42.012;24.880;2022-12-15T06:58:04;60.07;;;36.90;;
5904;SDS011;2978;42.012;24.880;2022-12-15T07:00:30;41.27;;;27.43;;
5904;SDS011;2978;42.012;24.880;2022-12-15T07:02:57;59.10;;;34.40;;
5904;SDS011;2978;42.012;24.880;2022-12-15T07:05:23;55.83;;;32.50;;
5904;SDS011;2978;42.012;24.880;2022-12-15T07:07:48;46.30;;;29.33;;
5904;SDS011;2978;42.012;24.880;2022-12-15T07:10:15;45.87;;;30.83;;
5904;SDS011;2978;42.012;24.880;2022-12-15T07:12:41;45.03;;;33.57;;
5904;SDS011;2978;42.012;24.880;2022-12-15T07:15:07;38.63;;;27.70;;
5904;SDS011;2978;42.012;24.880;2022-12-15T07:17:34;39.13;;;28.57;;
5904;SDS011;2978;42.012;24.880;2022-12-15T07:20:00;32.50;;;22.43;;
5904;SDS011;2978;42.012;24.880;2022-12-15T07:22:27;35.17;;;23.47;;
5904;SDS011;2978;42.012;24.880;2022-12-15T07:28:14;31.67;;;23.50;;
5904;SDS011;2978;42.012;24.880;2022-12-15T07:30:39;29.43;;;21.33;;
5904;SDS011;2978;42.012;24.880;2022-12-15T07:33:05;66.37;;;22.30;;
5904;SDS011;2978;42.012;24.880;2022-12-15T07:35:30;27.40;;;18.80;;
5904;SDS011;2978;42.012;24.880;2022-12-15T07:37:56;27.67;;;17.53;;
5904;SDS011;2978;42.012;24.880;2022-12-15T07:40:22;57.03;;;20.57;;
5904;SDS011;2978;42.012;24.880;2022-12-15T07:42:47;24.07;;;16.80;;
5904;SDS011;2978;42.012;24.880;2022-12-15T07:45:13;32.77;;;18.90;;
5904;SDS011;2978;42.012;24.880;2022-12-15T07:47:39;37.77;;;18.43;;
5904;SDS011;2978;42.012;24.880;2022-12-15T07:50:05;94.80;;;23.00;;
5904;SDS011;2978;42.012;24.880;2022-12-15T07:52:31;29.50;;;20.67;;
5904;SDS011;2978;42.012;24.880;2022-12-15T07:54:56;32.80;;;22.13;;
5904;SDS011;2978;42.012;24.880;2022-12-15T07:57:22;31.60;;;20.77;;
5904;SDS011;2978;42.012;24.880;2022-12-15T07:59:47;28.40;;;18.90;;
5904;SDS011;2978;42.012;24.880;2022-12-15T08:02:14;37.80;;;24.67;;
5904;SDS011;2978;42.012;24.880;2022-12-15T08:04:40;32.87;;;22.70;;
5904;SDS011;2978;42.012;24.880;2022-12-15T08:07:05;34.70;;;23.33;;
5904;SDS011;2978;42.012;24.880;2022-12-15T08:09:32;36.97;;;24.63;;
5904;SDS011;2978;42.012;24.880;2022-12-15T08:11:58;33.53;;;23.40;;
5904;SDS011;2978;42.012;24.880;2022-12-15T08:14:24;33.90;;;21.10;;
5904;SDS011;2978;42.012;24.880;2022-12-15T08:16:49;32.77;;;21.97;;
5904;SDS011;2978;42.012;24.880;2022-12-15T08:19:15;36.20;;;21.93;;
5904;SDS011;2978;42.012;24.880;2022-12-15T08:21:42;33.53;;;21.23;;
5904;SDS011;2978;42.012;24.880;2022-12-15T08:24:09;34.67;;;22.70;;
5904;SDS011;2978;42.012;24.880;2022-12-15T08:26:35;29.97;;;21.03;;
5904;SDS011;2978;42.012;24.880;2022-12-15T08:29:03;35.37;;;21.67;;
5904;SDS011;2978;42.012;24.880;2022-12-15T08:31:30;32.63;;;22.97;;
5904;SDS011;2978;42.012;24.880;2022-12-15T08:33:57;31.77;;;22.00;;
5904;SDS011;2978;42.012;24.880;2022-12-15T08:36:23;35.93;;;23.23;;
5904;SDS011;2978;42.012;24.880;2022-12-15T08:38:49;37.10;;;23.60;;
5904;SDS011;2978;42.012;24.880;2022-12-15T08:41:16;34.90;;;24.80;;
5904;SDS011;2978;42.012;24.880;2022-12-15T08:43:44;34.20;;;23.03;;
5904;SDS011;2978;42.012;24.880;2022-12-15T08:46:11;34.10;;;22.40;;
5904;SDS011;2978;42.012;24.880;2022-12-15T08:48:37;31.50;;;22.37;;
5904;SDS011;2978;42.012;24.880;2022-12-15T08:51:02;31.70;;;20.50;;
5904;SDS011;2978;42.012;24.880;2022-12-15T08:53:28;32.60;;;19.87;;
5904;SDS011;2978;42.012;24.880;2022-12-15T08:55:54;26.33;;;18.37;;
5904;SDS011;2978;42.012;24.880;2022-12-15T08:58:19;27.80;;;18.20;;
5904;SDS011;2978;42.012;24.880;2022-12-15T09:00:45;31.40;;;20.13;;
5904;SDS011;2978;42.012;24.880;2022-12-15T09:03:10;31.10;;;19.20;;
5904;SDS011;2978;42.012;24.880;2022-12-15T09:05:36;28.63;;;20.10;;
5904;SDS011;2978;42.012;24.880;2022-12-15T09:08:02;28.07;;;19.90;;
5904;SDS011;2978;42.012;24.880;2022-12-15T09:10:29;34.17;;;20.10;;
5904;SDS011;2978;42.012;24.880;2022-12-15T09:12:54;33.40;;;23.17;;
5904;SDS011;2978;42.012;24.880;2022-12-15T09:15:20;31.83;;;23.03;;
5904;SDS011;2978;42.012;24.880;2022-12-15T09:17:45;39.77;;;21.07;;
5904;SDS011;2978;42.012;24.880;2022-12-15T09:20:11;39.13;;;20.97;;
5904;SDS011;2978;42.012;24.880;2022-12-15T09:22:38;34.77;;;22.23;;
5904;SDS011;2978;42.012;24.880;2022-12-15T09:25:04;34.30;;;22.60;;
5904;SDS011;2978;42.012;24.880;2022-12-15T09:27:30;31.40;;;21.60;;
5904;SDS011;2978;42.012;24.880;2022-12-15T09:29:56;31.37;;;21.43;;
5904;SDS011;2978;42.012;24.880;2022-12-15T09:32:22;30.93;;;20.40;;
5904;SDS011;2978;42.012;24.880;2022-12-15T09:43:10;33.50;;;15.90;;
5904;SDS011;2978;42.012;24.880;2022-12-15T09:45:43;32.33;;;19.60;;
5904;SDS011;2978;42.012;24.880;2022-12-15T09:48:16;35.33;;;19.80;;
5904;SDS011;2978;42.012;24.880;2022-12-15T09:50:45;25.40;;;17.27;;
5904;SDS011;2978;42.012;24.880;2022-12-15T09:53:13;21.53;;;16.63;;
5904;SDS011;2978;42.012;24.880;2022-12-15T09:55:41;30.13;;;18.57;;
5904;SDS011;2978;42.012;24.880;2022-12-15T09:58:17;36.90;;;22.43;;
5904;SDS011;2978;42.012;24.880;2022-12-15T10:03:54;41.43;;;20.20;;
5904;SDS011;2978;42.012;24.880;2022-12-15T10:09:15;40.40;;;18.40;;
5904;SDS011;2978;42.012;24.880;2022-12-15T10:11:57;38.70;;;20.03;;
5904;SDS011;2978;42.012;24.880;2022-12-15T10:14:28;38.10;;;20.57;;
5904;SDS011;2978;42.012;24.880;2022-12-15T10:22:11;37.50;;;21.13;;
5904;SDS011;2978;42.012;24.880;2022-12-15T10:24:40;66.03;;;25.27;;
5904;SDS011;2978;42.012;24.880;2022-12-15T10:30:01;33.97;;;21.60;;
5904;SDS011;2978;42.012;24.880;2022-12-15T10:32:35;41.83;;;24.50;;
5904;SDS011;2978;42.012;24.880;2022-12-15T10:35:19;46.37;;;22.30;;
5904;SDS011;2978;42.012;24.880;2022-12-15T10:37:53;37.87;;;23.13;;
5904;SDS011;2978;42.012;24.880;2022-12-15T10:43:14;61.13;;;29.20;;
5904;SDS011;2978;42.012;24.880;2022-12-15T10:45:49;49.73;;;25.50;;
5904;SDS011;2978;42.012;24.880;2022-12-15T10:48:24;53.33;;;28.83;;
5904;SDS011;2978;42.012;24.880;2022-12-15T10:50:50;60.80;;;30.03;;
5904;SDS011;2978;42.012;24.880;2022-12-15T10:53:32;47.70;;;27.77;;
5904;SDS011;2978;42.012;24.880;2022-12-15T10:56:07;62.57;;;29.87;;
5904;SDS011;2978;42.012;24.880;2022-12-15T10:58:44;46.97;;;31.47;;
5904;SDS011;2978;42.012;24.880;2022-12-15T11:01:15;59.10;;;28.67;;
5904;SDS011;2978;42.012;24.880;2022-12-15T11:03:59;44.60;;;25.77;;
5904;SDS011;2978;42.012;24.880;2022-12-15T11:06:27;42.33;;;26.40;;
5904;SDS011;2978;42.012;24.880;2022-12-15T11:08:55;47.90;;;23.63;;
5904;SDS011;2978;42.012;24.880;2022-12-15T11:11:31;35.93;;;22.77;;
5904;SDS011;2978;42.012;24.880;2022-12-15T11:14:20;45.93;;;23.90;;
5904;SDS011;2978;42.012;24.880;2022-12-15T11:16:57;33.30;;;21.10;;
5904;SDS011;2978;42.012;24.880;2022-12-15T11:19:26;39.13;;;23.90;;
5904;SDS011;2978;42.012;24.880;2022-12-15T11:22:02;38.37;;;22.87;;
5904;SDS011;2978;42.012;24.880;2022-12-15T11:32:12;47.00;;;26.33;;
5904;SDS011;2978;42.012;24.880;2022-12-15T11:34:43;55.40;;;25.50;;
5904;SDS011;2978;42.012;24.880;2022-12-15T11:47:49;59.37;;;26.07;;
5904;SDS011;2978;42.012;24.880;2022-12-15T12:01:38;89.27;;;29.47;;
5904;SDS011;2978;42.012;24.880;2022-12-15T12:12:29;57.53;;;28.57;;
5904;SDS011;2978;42.012;24.880;2022-12-15T12:15:13;55.03;;;26.80;;
5904;SDS011;2978;42.012;24.880;2022-12-15T12:17:47;73.10;;;26.67;;
5904;SDS011;2978;42.012;24.880;2022-12-15T12:20:17;58.03;;;26.87;;
5904;SDS011;2978;42.012;24.880;2022-12-15T12:23:04;66.20;;;27.00;;
5904;SDS011;2978;42.012;24.880;2022-12-15T12:25:39;65.37;;;29.07;;
5904;SDS011;2978;42.012;24.880;2022-12-15T12:28:15;63.00;;;29.43;;
5904;SDS011;2978;42.012;24.880;2022-12-15T12:30:45;93.57;;;30.17;;
5904;SDS011;2978;42.012;24.880;2022-12-15T12:35:56;76.23;;;33.77;;
5904;SDS011;2978;42.012;24.880;2022-12-15T12:38:36;68.47;;;27.73;;
5904;SDS011;2978;42.012;24.880;2022-12-15T12:43:59;57.83;;;25.67;;
5904;SDS011;2978;42.012;24.880;2022-12-15T12:46:34;65.00;;;26.80;;
5904;SDS011;2978;42.012;24.880;2022-12-15T12:51:52;73.03;;;30.00;;
5904;SDS011;2978;42.012;24.880;2022-12-15T12:57:28;67.93;;;30.17;;
5904;SDS011;2978;42.012;24.880;2022-12-15T13:00:38;54.53;;;32.30;;
5904;SDS011;2978;42.012;24.880;2022-12-15T13:04:08;58.10;;;28.67;;
5904;SDS011;2978;42.012;24.880;2022-12-15T13:09:19;68.63;;;35.30;;
5904;SDS011;2978;42.012;24.880;2022-12-15T13:14:18;47.90;;;29.43;;
5904;SDS011;2978;42.012;24.880;2022-12-15T13:17:13;55.63;;;32.87;;
5904;SDS011;2978;42.012;24.880;2022-12-15T13:22:30;57.13;;;34.23;;
5904;SDS011;2978;42.012;24.880;2022-12-15T13:24:58;60.93;;;32.20;;
5904;SDS011;2978;42.012;24.880;2022-12-15T13:39:34;42.53;;;25.40;;
5904;SDS011;2978;42.012;24.880;2022-12-15T13:47:11;31.93;;;19.23;;
5904;SDS011;2978;42.012;24.880;2022-12-15T13:49:42;26.60;;;17.80;;
5904;SDS011;2978;42.012;24.880;2022-12-15T13:54:58;47.97;;;22.03;;
5904;SDS011;2978;42.012;24.880;2022-12-15T13:57:27;77.37;;;31.13;;
5904;SDS011;2978;42.012;24.880;2022-12-15T13:59:56;56.90;;;32.13;;
5904;SDS011;2978;42.012;24.880;2022-12-15T14:02:30;55.13;;;30.90;;
5904;SDS011;2978;42.012;24.880;2022-12-15T14:07:34;72.70;;;39.80;;
5904;SDS011;2978;42.012;24.880;2022-12-15T14:10:00;56.53;;;36.50;;
5904;SDS011;2978;42.012;24.880;2022-12-15T14:12:30;87.50;;;45.17;;
5904;SDS011;2978;42.012;24.880;2022-12-15T14:14:56;112.33;;;51.87;;
5904;SDS011;2978;42.012;24.880;2022-12-15T14:17:21;128.13;;;57.63;;
5904;SDS011;2978;42.012;24.880;2022-12-15T14:19:48;185.40;;;88.57;;
5904;SDS011;2978;42.012;24.880;2022-12-15T14:22:24;158.10;;;72.77;;
5904;SDS011;2978;42.012;24.880;2022-12-15T14:24:52;123.77;;;56.63;;
5904;SDS011;2978;42.012;24.880;2022-12-15T14:30:10;88.50;;;45.33;;
5904;SDS011;2978;42.012;24.880;2022-12-15T14:32:38;85.17;;;39.70;;
5904;SDS011;2978;42.012;24.880;2022-12-15T14:35:07;89.47;;;38.50;;
5904;SDS011;2978;42.012;24.880;2022-12-15T14:37:56;102.77;;;39.67;;
5904;SDS011;2978;42.012;24.880;2022-12-15T14:42:56;99.60;;;36.50;;
5904;SDS011;2978;42.012;24.880;2022-12-15T14:45:26;79.03;;;35.60;;
5904;SDS011;2978;42.012;24.880;2022-12-15T14:47:54;90.47;;;37.40;;
5904;SDS011;2978;42.012;24.880;2022-12-15T14:50:22;92.23;;;39.00;;
5904;SDS011;2978;42.012;24.880;2022-12-15T14:52:54;113.10;;;40.10;;
5904;SDS011;2978;42.012;24.880;2022-12-15T14:55:29;137.50;;;43.43;;
5904;SDS011;2978;42.012;24.880;2022-12-15T14:58:20;163.33;;;45.37;;
5904;SDS011;2978;42.012;24.880;2022-12-15T15:00:58;125.83;;;45.57;;
5904;SDS011;2978;42.012;24.880;2022-12-15T15:03:26;128.33;;;46.10;;
5904;SDS011;2978;42.012;24.880;2022-12-15T15:08:41;131.30;;;47.43;;
5904;SDS011;2978;42.012;24.880;2022-12-15T15:11:24;154.80;;;50.77;;
5904;SDS011;2978;42.012;24.880;2022-12-15T15:14:01;142.57;;;54.10;;
5904;SDS011;2978;42.012;24.880;2022-12-15T15:16:31;143.53;;;57.43;;
5904;SDS011;2978;42.012;24.880;2022-12-15T15:18:58;139.73;;;55.87;;
5904;SDS011;2978;42.012;24.880;2022-12-15T15:21:27;143.43;;;61.30;;
5904;SDS011;2978;42.012;24.880;2022-12-15T15:24:19;145.07;;;60.60;;
5904;SDS011;2978;42.012;24.880;2022-12-15T15:26:45;159.80;;;60.90;;
5904;SDS011;2978;42.012;24.880;2022-12-15T15:32:05;156.20;;;58.10;;
5904;SDS011;2978;42.012;24.880;2022-12-15T15:34:38;140.93;;;59.50;;
5904;SDS011;2978;42.012;24.880;2022-12-15T15:37:04;161.43;;;62.03;;
5904;SDS011;2978;42.012;24.880;2022-12-15T15:39:37;128.30;;;55.63;;
5904;SDS011;2978;42.012;24.880;2022-12-15T15:42:05;138.00;;;55.23;;
5904;SDS011;2978;42.012;24.880;2022-12-15T15:44:36;151.60;;;54.37;;
5904;SDS011;2978;42.012;24.880;2022-12-15T15:47:01;110.43;;;50.73;;
5904;SDS011;2978;42.012;24.880;2022-12-15T15:49:27;92.13;;;50.30;;
5904;SDS011;2978;42.012;24.880;2022-12-15T15:51:53;117.83;;;54.67;;
5904;SDS011;2978;42.012;24.880;2022-12-15T15:54:21;138.87;;;67.00;;
5904;SDS011;2978;42.012;24.880;2022-12-15T15:56:49;133.40;;;68.20;;
5904;SDS011;2978;42.012;24.880;2022-12-15T15:59:15;142.27;;;68.77;;
5904;SDS011;2978;42.012;24.880;2022-12-15T16:01:51;137.10;;;63.60;;
5904;SDS011;2978;42.012;24.880;2022-12-15T16:04:24;134.30;;;62.13;;
5904;SDS011;2978;42.012;24.880;2022-12-15T16:06:50;129.70;;;65.90;;
5904;SDS011;2978;42.012;24.880;2022-12-15T16:09:16;122.47;;;64.00;;
5904;SDS011;2978;42.012;24.880;2022-12-15T16:11:42;139.33;;;63.20;;
5904;SDS011;2978;42.012;24.880;2022-12-15T16:14:13;143.30;;;58.07;;
5904;SDS011;2978;42.012;24.880;2022-12-15T16:16:39;141.37;;;67.67;;
5904;SDS011;2978;42.012;24.880;2022-12-15T16:19:06;115.27;;;55.73;;
5904;SDS011;2978;42.012;24.880;2022-12-15T16:21:31;168.40;;;92.67;;
5904;SDS011;2978;42.012;24.880;2022-12-15T16:23:59;151.50;;;81.30;;
5904;SDS011;2978;42.012;24.880;2022-12-15T16:26:39;126.03;;;77.20;;
5904;SDS011;2978;42.012;24.880;2022-12-15T16:29:14;134.53;;;69.83;;
5904;SDS011;2978;42.012;24.880;2022-12-15T16:31:42;157.23;;;68.47;;
5904;SDS011;2978;42.012;24.880;2022-12-15T16:34:13;179.50;;;73.90;;
5904;SDS011;2978;42.012;24.880;2022-12-15T16:36:40;158.53;;;70.20;;
5904;SDS011;2978;42.012;24.880;2022-12-15T16:39:26;157.63;;;70.87;;
5904;SDS011;2978;42.012;24.880;2022-12-15T16:41:55;179.00;;;69.23;;
5904;SDS011;2978;42.012;24.880;2022-12-15T16:44:20;202.63;;;70.23;;
5904;SDS011;2978;42.012;24.880;2022-12-15T16:46:46;168.73;;;67.27;;
5904;SDS011;2978;42.012;24.880;2022-12-15T16:49:11;200.00;;;74.67;;
5904;SDS011;2978;42.012;24.880;2022-12-15T16:51:38;197.97;;;87.37;;
5904;SDS011;2978;42.012;24.880;2022-12-15T16:54:05;180.27;;;81.00;;
5904;SDS011;2978;42.012;24.880;2022-12-15T16:56:31;166.30;;;91.73;;
5904;SDS011;2978;42.012;24.880;2022-12-15T16:58:57;141.80;;;81.00;;
5904;SDS011;2978;42.012;24.880;2022-12-15T17:01:22;160.83;;;84.60;;
5904;SDS011;2978;42.012;24.880;2022-12-15T17:03:48;188.83;;;91.63;;
5904;SDS011;2978;42.012;24.880;2022-12-15T17:06:14;206.03;;;91.07;;
5904;SDS011;2978;42.012;24.880;2022-12-15T17:08:50;194.63;;;99.03;;
5904;SDS011;2978;42.012;24.880;2022-12-15T17:11:21;182.87;;;95.07;;
5904;SDS011;2978;42.012;24.880;2022-12-15T17:13:48;205.53;;;93.07;;
5904;SDS011;2978;42.012;24.880;2022-12-15T17:16:16;155.60;;;83.80;;
5904;SDS011;2978;42.012;24.880;2022-12-15T17:18:43;158.47;;;83.33;;
5904;SDS011;2978;42.012;24.880;2022-12-15T17:21:18;169.40;;;90.10;;